Time;durP1;ratioP1;P1;durP2;ratioP2;P2;SDS_P1;SDS_P2;PMS_P1;PMS_P2;Temp;Humidity;BMP_temperature;BMP_pressure;BME280_temperature;BME280_humidity;BME280_pressure;Samples;Min_cycle;Max_cycle;Signal;HPM_P1;HPM_P2
2023/07/06 00:00:51;;;;;;;0.30;0.30;;;13.10;99.90;;;;;;5144122;27;20035;-67
2023/07/06 00:03:17;;;;;;;0.00;0.00;;;13.10;99.90;;;;;;5116441;27;20136;-68
2023/07/06 00:05:47;;;;;;;2.05;0.68;;;13.10;99.90;;;;;;5123535;27;20077;-67
2023/07/06 00:08:13;;;;;;;0.10;0.10;;;13.00;99.90;;;;;;5153549;27;20121;-67
2023/07/06 00:10:42;;;;;;;0.10;0.10;;;13.00;99.90;;;;;;5126244;27;20644;-67
2023/07/06 00:13:08;;;;;;;0.00;0.00;;;13.10;99.90;;;;;;5124867;27;20079;-67
2023/07/06 00:15:34;;;;;;;0.00;0.00;;;13.10;99.90;;;;;;5124979;27;20051;-68
2023/07/06 00:18:04;;;;;;;0.20;0.20;;;13.10;99.90;;;;;;5141332;27;20035;-67
2023/07/06 00:20:32;;;;;;;0.28;0.28;;;13.00;99.90;;;;;;5141462;27;20047;-67
2023/07/06 00:23:01;;;;;;;1.55;0.30;;;13.10;99.90;;;;;;5143529;27;20053;-67
2023/07/06 00:25:27;;;;;;;0.00;0.00;;;13.10;99.90;;;;;;5122897;27;20051;-67
2023/07/06 00:28:02;;;;;;;0.17;0.17;;;13.10;99.90;;;;;;5143650;27;20785;-68
2023/07/06 00:30:41;;;;;;;0.00;0.00;;;13.10;99.90;;;;;;5140743;27;20057;-67
2023/07/06 00:33:08;;;;;;;0.38;0.38;;;13.10;99.90;;;;;;5121473;27;20091;-68
2023/07/06 00:35:34;;;;;;;4.28;0.40;;;13.00;99.90;;;;;;5143285;27;20047;-68
2023/07/06 00:38:01;;;;;;;0.00;0.00;;;13.00;99.90;;;;;;5143926;27;20046;-68
2023/07/06 00:40:31;;;;;;;0.10;0.10;;;12.90;99.90;;;;;;5124588;27;20046;-67
2023/07/06 00:42:57;;;;;;;0.00;0.00;;;12.90;99.90;;;;;;5122361;27;20077;-67
2023/07/06 00:45:24;;;;;;;0.03;0.03;;;12.90;99.90;;;;;;5140753;27;20047;-68
2023/07/06 00:47:56;;;;;;;0.15;0.15;;;12.90;99.90;;;;;;5147334;27;20054;-67
2023/07/06 00:50:25;;;;;;;0.00;0.00;;;13.00;99.90;;;;;;5141267;27;20046;-67
2023/07/06 00:52:54;;;;;;;0.00;0.00;;;13.00;99.90;;;;;;5140952;27;20047;-67
2023/07/06 00:55:27;;;;;;;0.30;0.30;;;13.00;99.90;;;;;;5145263;27;20545;-68
2023/07/06 00:57:57;;;;;;;0.45;0.45;;;13.00;99.90;;;;;;5125911;27;20176;-68
2023/07/06 01:00:23;;;;;;;0.15;0.15;;;13.00;99.90;;;;;;5139220;27;20057;-66
2023/07/06 01:02:57;;;;;;;0.15;0.15;;;13.00;99.90;;;;;;5144590;27;20026;-67
2023/07/06 01:05:24;;;;;;;;;;;12.90;99.90;;;;;;5141895;27;20050;-68
2023/07/06 01:07:52;;;;;;;0.05;0.05;;;12.80;99.90;;;;;;5138350;27;20298;-67
2023/07/06 01:10:18;;;;;;;0.60;0.57;;;12.90;99.90;;;;;;5146234;27;20397;-68
2023/07/06 01:12:44;;;;;;;0.10;0.10;;;12.90;99.90;;;;;;5139420;27;20045;-67
2023/07/06 01:15:10;;;;;;;0.13;0.13;;;13.00;99.90;;;;;;5141576;27;20050;-68
2023/07/06 01:18:01;;;;;;;0.10;0.10;;;13.00;99.90;;;;;;5125741;27;20436;-68
2023/07/06 01:20:44;;;;;;;0.10;0.10;;;13.00;99.90;;;;;;5137638;27;20043;-68
2023/07/06 01:23:21;;;;;;;0.10;0.10;;;13.00;99.90;;;;;;5141087;27;20096;-67
2023/07/06 01:26:02;;;;;;;0.05;0.05;;;13.00;99.90;;;;;;5123031;27;20047;-68
2023/07/06 01:28:45;;;;;;;2.17;1.00;;;13.00;99.90;;;;;;5125023;28;20050;-67
2023/07/06 01:31:30;;;;;;;0.07;0.07;;;12.90;99.90;;;;;;5130470;27;20498;-67
2023/07/06 01:34:15;;;;;;;0.00;0.00;;;12.90;99.90;;;;;;5143508;27;20047;-67
2023/07/06 01:36:46;;;;;;;0.25;0.25;;;13.00;99.90;;;;;;5144142;27;20054;-68
2023/07/06 01:39:20;;;;;;;0.00;0.00;;;13.00;99.90;;;;;;5140802;27;20046;-67
2023/07/06 01:42:03;;;;;;;0.20;0.20;;;13.00;99.90;;;;;;5141623;27;20035;-68
2023/07/06 01:44:29;;;;;;;0.07;0.07;;;13.00;99.90;;;;;;5123577;27;20126;-68
2023/07/06 01:46:54;;;;;;;0.13;0.13;;;13.00;99.90;;;;;;5140406;27;20118;-68
2023/07/06 01:49:21;;;;;;;0.40;0.40;;;12.90;99.90;;;;;;5140392;27;20043;-67
2023/07/06 01:51:58;;;;;;;0.17;0.10;;;12.90;99.90;;;;;;5123595;27;20050;-68
2023/07/06 01:54:31;;;;;;;0.00;0.00;;;12.90;99.90;;;;;;5122363;27;20042;-67
2023/07/06 01:57:06;;;;;;;0.03;0.03;;;12.80;99.90;;;;;;5122628;28;20071;-68
2023/07/06 01:59:35;;;;;;;0.10;0.10;;;12.80;99.90;;;;;;5146276;27;20043;-67
2023/07/06 02:02:06;;;;;;;0.00;0.00;;;12.80;99.90;;;;;;5142541;27;20038;-68
2023/07/06 02:04:35;;;;;;;0.32;0.32;;;12.80;99.90;;;;;;5121092;27;20043;-67
2023/07/06 02:07:04;;;;;;;0.00;0.00;;;12.70;99.90;;;;;;5125714;27;20091;-67
2023/07/06 02:09:29;;;;;;;0.05;0.05;;;12.70;99.90;;;;;;5122034;27;20054;-67
2023/07/06 02:11:55;;;;;;;0.38;0.38;;;12.60;99.90;;;;;;5119734;28;20028;-67
2023/07/06 02:14:21;;;;;;;0.10;0.10;;;12.60;99.90;;;;;;5146344;27;20076;-67
2023/07/06 02:16:50;;;;;;;0.10;0.10;;;12.60;99.90;;;;;;5140582;27;20039;-67
2023/07/06 02:19:20;;;;;;;0.08;0.08;;;12.60;99.90;;;;;;5145251;27;20414;-67
2023/07/06 02:21:48;;;;;;;0.00;0.00;;;12.50;99.90;;;;;;5125680;27;20046;-67
2023/07/06 02:24:14;;;;;;;0.00;0.00;;;12.50;99.90;;;;;;5143880;27;20043;-67
2023/07/06 02:26:39;;;;;;;0.10;0.10;;;12.50;99.90;;;;;;5127311;27;20057;-67
2023/07/06 02:29:05;;;;;;;0.30;0.30;;;12.50;99.90;;;;;;5149630;27;20074;-67
2023/07/06 02:31:30;;;;;;;0.28;0.28;;;12.40;99.90;;;;;;5144599;27;20117;-67
2023/07/06 02:33:56;;;;;;;0.00;0.00;;;12.40;99.90;;;;;;5132870;27;20061;-67
2023/07/06 02:36:22;;;;;;;2.50;1.38;;;12.40;99.90;;;;;;5143949;27;20034;-67
2023/07/06 02:38:48;;;;;;;0.15;0.15;;;12.30;99.90;;;;;;5145896;27;20039;-67
2023/07/06 02:41:14;;;;;;;0.00;0.00;;;12.30;99.90;;;;;;5139809;27;20042;-68
2023/07/06 02:43:41;;;;;;;0.22;0.22;;;12.30;99.90;;;;;;5139259;27;20043;-68
2023/07/06 02:46:07;;;;;;;0.00;0.00;;;12.30;99.90;;;;;;5131679;27;20046;-68
2023/07/06 02:48:32;;;;;;;2.15;1.00;;;12.20;99.90;;;;;;5143740;27;20043;-67
2023/07/06 02:50:58;;;;;;;0.00;0.00;;;12.30;99.90;;;;;;5145283;27;20168;-67
2023/07/06 02:53:23;;;;;;;3.25;1.75;;;12.20;99.90;;;;;;5148737;27;20035;-67
2023/07/06 02:55:51;;;;;;;0.30;0.30;;;12.20;99.90;;;;;;5123845;27;20031;-67
2023/07/06 02:58:18;;;;;;;0.40;0.40;;;12.20;99.90;;;;;;5145701;27;20394;-67
2023/07/06 03:00:47;;;;;;;0.00;0.00;;;12.20;99.90;;;;;;5146747;27;20083;-67
2023/07/06 03:03:14;;;;;;;0.08;0.08;;;12.20;99.90;;;;;;5140480;27;20470;-67
2023/07/06 03:05:43;;;;;;;0.00;0.00;;;12.20;99.90;;;;;;5148204;27;20152;-67
2023/07/06 03:08:10;;;;;;;0.15;0.15;;;12.20;99.90;;;;;;5124975;27;20484;-67
2023/07/06 03:10:35;;;;;;;0.20;0.20;;;12.20;99.90;;;;;;5146040;27;20070;-67
2023/07/06 03:13:01;;;;;;;0.00;0.00;;;12.30;99.90;;;;;;5126476;27;20147;-68
2023/07/06 03:15:28;;;;;;;0.10;0.10;;;12.30;99.90;;;;;;5146746;27;20057;-68
2023/07/06 03:17:54;;;;;;;0.00;0.00;;;12.30;99.90;;;;;;5130425;27;20115;-67
2023/07/06 03:20:20;;;;;;;0.30;0.30;;;12.40;99.90;;;;;;5142739;27;20074;-67
2023/07/06 03:22:52;;;;;;;0.15;0.15;;;12.50;99.90;;;;;;5138388;27;20087;-67
2023/07/06 03:25:20;;;;;;;0.10;0.10;;;12.50;99.90;;;;;;5147546;27;20482;-67
2023/07/06 03:27:47;;;;;;;0.00;0.00;;;12.60;99.90;;;;;;5144796;27;20074;-67
2023/07/06 03:30:15;;;;;;;0.00;0.00;;;12.50;99.90;;;;;;5146807;27;20046;-67
2023/07/06 03:32:41;;;;;;;0.20;0.20;;;12.60;99.90;;;;;;5126720;27;20051;-68
2023/07/06 03:35:09;;;;;;;0.00;0.00;;;12.70;99.90;;;;;;5123888;27;20103;-67
2023/07/06 03:37:37;;;;;;;0.22;0.22;;;12.80;99.90;;;;;;5144680;27;20119;-67
2023/07/06 03:40:05;;;;;;;0.20;0.20;;;12.70;99.90;;;;;;5154187;27;20042;-67
2023/07/06 03:42:32;;;;;;;0.30;0.30;;;12.80;99.90;;;;;;5127616;27;20545;-67
2023/07/06 03:44:57;;;;;;;0.00;0.00;;;12.90;99.90;;;;;;5143272;27;20043;-68
2023/07/06 03:47:23;;;;;;;0.00;0.00;;;12.90;99.90;;;;;;5146511;27;20214;-68
2023/07/06 03:49:52;;;;;;;0.10;0.10;;;12.90;99.90;;;;;;5127379;27;20493;-68
2023/07/06 03:52:18;;;;;;;0.00;0.00;;;13.00;99.90;;;;;;5142871;27;20046;-67
2023/07/06 03:54:47;;;;;;;0.00;0.00;;;13.00;99.90;;;;;;5145504;27;20047;-67
2023/07/06 03:57:16;;;;;;;0.00;0.00;;;13.00;99.90;;;;;;5124183;27;20475;-68
2023/07/06 03:59:42;;;;;;;0.00;0.00;;;13.00;99.90;;;;;;5127532;27;20097;-68
2023/07/06 04:02:09;;;;;;;0.00;0.00;;;12.90;99.90;;;;;;5125478;27;20063;-67
2023/07/06 04:04:35;;;;;;;3.03;0.75;;;13.00;99.90;;;;;;5146509;27;20039;-69
2023/07/06 04:07:01;;;;;;;0.75;0.38;;;13.00;99.90;;;;;;5142301;27;20042;-68
2023/07/06 04:09:28;;;;;;;0.30;0.30;;;13.00;99.90;;;;;;5141009;27;20058;-68
2023/07/06 04:11:54;;;;;;;0.20;0.20;;;13.00;99.90;;;;;;5137610;27;20035;-67
2023/07/06 04:14:24;;;;;;;0.00;0.00;;;13.00;99.90;;;;;;5142654;27;20483;-67
2023/07/06 04:16:56;;;;;;;0.00;0.00;;;13.00;99.90;;;;;;5149567;27;20039;-67
2023/07/06 04:19:23;;;;;;;0.28;0.28;;;13.00;99.90;;;;;;5135380;27;20043;-67
2023/07/06 04:21:49;;;;;;;0.00;0.00;;;13.00;99.90;;;;;;5122986;27;20082;-67
2023/07/06 04:24:16;;;;;;;0.30;0.30;;;13.10;99.90;;;;;;5141324;27;20092;-67
2023/07/06 04:26:42;;;;;;;0.08;0.08;;;13.10;99.90;;;;;;5148793;27;20057;-67
2023/07/06 04:29:09;;;;;;;0.00;0.00;;;13.20;99.90;;;;;;5148578;27;20039;-67
2023/07/06 04:31:36;;;;;;;0.00;0.00;;;13.30;99.90;;;;;;5122659;27;20051;-67
2023/07/06 04:34:03;;;;;;;0.00;0.00;;;13.30;99.90;;;;;;5140757;27;20104;-67
2023/07/06 04:36:31;;;;;;;0.00;0.00;;;13.40;99.90;;;;;;5142058;27;20050;-68
2023/07/06 04:38:59;;;;;;;0.00;0.00;;;13.40;99.90;;;;;;5143355;27;20074;-68
2023/07/06 04:41:27;;;;;;;0.00;0.00;;;13.40;99.90;;;;;;5125393;27;20061;-68
2023/07/06 04:43:54;;;;;;;0.25;0.25;;;13.50;99.90;;;;;;5122489;27;20451;-67
2023/07/06 04:46:23;;;;;;;0.00;0.00;;;13.50;99.90;;;;;;5137402;27;20046;-68
2023/07/06 04:48:49;;;;;;;0.08;0.08;;;13.50;99.90;;;;;;5126747;27;20486;-67
2023/07/06 04:51:17;;;;;;;0.70;0.70;;;13.50;99.90;;;;;;5143522;27;20117;-68
2023/07/06 04:53:43;;;;;;;0.22;0.22;;;13.60;99.90;;;;;;5145397;27;20037;-68
2023/07/06 04:56:09;;;;;;;0.00;0.00;;;13.60;99.90;;;;;;5144623;27;20096;-68
2023/07/06 04:58:35;;;;;;;0.00;0.00;;;13.70;99.90;;;;;;5140761;27;20494;-68
2023/07/06 05:01:05;;;;;;;0.10;0.10;;;13.70;99.90;;;;;;5141283;27;20103;-68
2023/07/06 05:03:31;;;;;;;0.45;0.20;;;13.70;99.90;;;;;;5118338;27;20106;-67
2023/07/06 05:06:05;;;;;;;0.25;0.25;;;13.80;99.90;;;;;;5122036;27;20482;-68
2023/07/06 05:08:34;;;;;;;0.20;0.20;;;13.90;99.90;;;;;;5123291;27;20483;-67
2023/07/06 05:11:04;;;;;;;0.00;0.00;;;13.90;99.90;;;;;;5119598;27;20150;-68
2023/07/06 05:13:31;;;;;;;0.20;0.20;;;13.90;99.90;;;;;;5141779;27;20490;-67
2023/07/06 05:15:57;;;;;;;0.00;0.00;;;14.00;99.90;;;;;;5118528;27;20050;-67
2023/07/06 05:18:23;;;;;;;0.08;0.08;;;14.00;99.90;;;;;;5134382;27;20155;-68
2023/07/06 05:20:51;;;;;;;0.10;0.10;;;14.10;99.90;;;;;;5120627;27;20046;-68
2023/07/06 05:23:18;;;;;;;0.10;0.10;;;14.20;99.90;;;;;;5148604;27;20039;-67
2023/07/06 05:25:44;;;;;;;0.00;0.00;;;14.20;99.90;;;;;;5141692;27;20046;-68
2023/07/06 05:28:12;;;;;;;0.10;0.10;;;14.30;99.90;;;;;;5141857;27;20125;-68
2023/07/06 05:30:43;;;;;;;0.17;0.17;;;14.40;99.90;;;;;;5127072;27;20072;-68
2023/07/06 05:33:09;;;;;;;0.00;0.00;;;14.40;99.90;;;;;;5141952;27;20069;-69
2023/07/06 05:35:34;;;;;;;0.00;0.00;;;14.40;99.90;;;;;;5126016;28;20051;-68
2023/07/06 05:38:01;;;;;;;0.00;0.00;;;14.50;99.90;;;;;;5143915;27;20053;-68
2023/07/06 05:40:27;;;;;;;0.32;0.30;;;14.60;99.90;;;;;;5124410;28;20039;-67
2023/07/06 05:42:56;;;;;;;0.10;0.10;;;14.60;99.90;;;;;;5144066;27;20050;-68
2023/07/06 05:45:21;;;;;;;0.08;0.08;;;14.80;99.90;;;;;;5149112;27;20087;-68
2023/07/06 05:47:47;;;;;;;0.75;0.75;;;14.80;99.90;;;;;;5141294;27;20039;-67
2023/07/06 05:50:13;;;;;;;12.85;0.98;;;14.90;99.90;;;;;;5149400;27;20043;-68
2023/07/06 05:52:42;;;;;;;0.30;0.25;;;15.00;99.90;;;;;;5144025;27;20404;-68
2023/07/06 05:55:09;;;;;;;2.35;1.98;;;15.00;99.90;;;;;;5151409;27;20042;-66
2023/07/06 05:57:35;;;;;;;0.10;0.10;;;15.10;99.90;;;;;;5149502;27;20037;-68
2023/07/06 06:00:07;;;;;;;0.28;0.28;;;15.10;99.90;;;;;;5129535;27;20133;-68
2023/07/06 06:02:33;;;;;;;0.00;0.00;;;15.30;99.90;;;;;;5125320;27;20091;-68
2023/07/06 06:04:59;;;;;;;0.00;0.00;;;15.30;99.90;;;;;;5147580;27;20047;-68
2023/07/06 06:07:25;;;;;;;0.10;0.10;;;15.40;99.90;;;;;;5142456;27;20153;-68
2023/07/06 06:09:51;;;;;;;0.20;0.20;;;15.50;99.90;;;;;;5146732;27;20108;-68
2023/07/06 06:12:20;;;;;;;16.85;0.75;;;15.50;99.90;;;;;;5144727;27;20110;-68
2023/07/06 06:14:52;;;;;;;0.10;0.10;;;15.60;99.90;;;;;;5143348;27;20031;-67
2023/07/06 06:17:19;;;;;;;0.10;0.10;;;15.60;99.90;;;;;;5147921;27;20047;-68
2023/07/06 06:19:45;;;;;;;1.20;1.10;;;15.70;99.90;;;;;;5144623;27;20485;-68
2023/07/06 06:22:13;;;;;;;0.00;0.00;;;15.80;99.90;;;;;;5124838;27;20130;-68
2023/07/06 06:24:39;;;;;;;0.55;0.55;;;15.80;99.90;;;;;;5145485;27;20067;-68
2023/07/06 06:27:05;;;;;;;0.20;0.20;;;15.90;99.90;;;;;;5144287;27;20525;-68
2023/07/06 06:29:32;;;;;;;0.00;0.00;;;15.90;99.90;;;;;;5143469;27;20054;-68
2023/07/06 06:31:59;;;;;;;0.00;0.00;;;16.00;99.90;;;;;;5146901;27;20050;-68
2023/07/06 06:34:25;;;;;;;0.28;0.28;;;16.10;99.90;;;;;;5144103;27;20091;-67
2023/07/06 06:36:51;;;;;;;0.00;0.00;;;16.10;99.90;;;;;;5126715;27;20043;-68
2023/07/06 06:39:19;;;;;;;0.25;0.25;;;16.20;99.90;;;;;;5147582;27;20035;-68
2023/07/06 06:41:46;;;;;;;0.03;0.03;;;16.20;99.90;;;;;;5126233;27;20393;-68
2023/07/06 06:44:13;;;;;;;0.75;0.75;;;16.20;99.90;;;;;;5124002;27;20520;-68
2023/07/06 06:46:38;;;;;;;0.00;0.00;;;16.30;99.90;;;;;;5151971;27;20035;-68
2023/07/06 06:49:04;;;;;;;0.00;0.00;;;16.30;99.90;;;;;;5144816;27;20397;-67
2023/07/06 06:51:30;;;;;;;0.47;0.47;;;16.30;99.90;;;;;;5124663;27;20085;-68
2023/07/06 06:53:55;;;;;;;0.08;0.08;;;16.30;99.90;;;;;;5145744;27;20067;-67
2023/07/06 06:56:22;;;;;;;0.38;0.38;;;16.40;99.90;;;;;;5143619;27;20035;-67
2023/07/06 06:58:48;;;;;;;0.00;0.00;;;16.50;99.90;;;;;;5144304;27;20050;-68
2023/07/06 07:01:14;;;;;;;0.43;0.43;;;16.60;99.90;;;;;;5145988;27;20035;-68
2023/07/06 07:03:40;;;;;;;0.32;0.32;;;16.60;99.90;;;;;;5141008;27;20047;-68
2023/07/06 07:06:12;;;;;;;0.10;0.10;;;16.70;99.90;;;;;;5116850;27;20038;-68
2023/07/06 07:08:51;;;;;;;2.08;0.68;;;16.70;99.90;;;;;;5122745;27;20076;-68
2023/07/06 07:11:19;;;;;;;0.22;0.22;;;16.80;99.90;;;;;;5147624;27;20066;-67
2023/07/06 07:13:45;;;;;;;0.00;0.00;;;16.80;99.90;;;;;;5143154;27;20035;-67
2023/07/06 07:16:11;;;;;;;0.00;0.00;;;16.80;99.90;;;;;;5142994;27;20059;-67
2023/07/06 07:18:38;;;;;;;0.10;0.10;;;16.90;99.90;;;;;;5146024;27;20043;-67
2023/07/06 07:21:07;;;;;;;0.03;0.03;;;16.90;99.90;;;;;;5142104;27;20084;-67
2023/07/06 07:23:43;;;;;;;0.00;0.00;;;16.90;99.90;;;;;;5140493;27;20138;-67
2023/07/06 07:26:17;;;;;;;0.45;0.45;;;17.10;99.90;;;;;;5126445;27;20050;-68
2023/07/06 07:28:44;;;;;;;0.00;0.00;;;17.10;99.90;;;;;;5142373;27;20042;-67
2023/07/06 07:31:12;;;;;;;0.03;0.03;;;17.20;99.90;;;;;;5140969;27;20078;-67
2023/07/06 07:33:41;;;;;;;0.55;0.55;;;17.20;99.90;;;;;;5137880;27;20050;-67
2023/07/06 07:36:11;;;;;;;0.00;0.00;;;17.30;99.90;;;;;;5148717;27;20043;-67
2023/07/06 07:38:38;;;;;;;0.00;0.00;;;17.30;99.90;;;;;;5146136;27;20081;-67
2023/07/06 07:41:09;;;;;;;0.00;0.00;;;17.40;99.90;;;;;;5143512;27;20051;-67
2023/07/06 07:43:36;;;;;;;0.00;0.00;;;17.40;99.90;;;;;;5146372;27;20049;-67
2023/07/06 07:46:04;;;;;;;0.00;0.00;;;17.50;99.90;;;;;;5130769;27;20088;-67
2023/07/06 07:48:37;;;;;;;0.00;0.00;;;17.40;99.90;;;;;;5141958;27;20049;-67
2023/07/06 07:51:05;;;;;;;0.00;0.00;;;17.30;99.90;;;;;;5153949;27;20160;-67
2023/07/06 07:53:34;;;;;;;0.05;0.05;;;17.30;99.90;;;;;;5144416;27;20587;-67
2023/07/06 07:56:00;;;;;;;0.00;0.00;;;17.40;99.90;;;;;;5143804;27;20484;-67
2023/07/06 07:58:26;;;;;;;0.17;0.17;;;17.60;99.90;;;;;;5135844;27;20037;-67
2023/07/06 08:00:56;;;;;;;0.00;0.00;;;17.60;99.90;;;;;;5143273;27;20389;-67
2023/07/06 08:03:27;;;;;;;0.00;0.00;;;17.70;99.90;;;;;;5147166;27;20043;-67
2023/07/06 08:05:59;;;;;;;0.00;0.00;;;17.70;99.90;;;;;;5139468;27;20047;-66
2023/07/06 08:08:25;;;;;;;0.10;0.10;;;17.90;99.90;;;;;;5143473;27;20097;-67
2023/07/06 08:10:55;;;;;;;0.08;0.08;;;17.90;99.90;;;;;;5144823;27;20039;-67
2023/07/06 08:13:21;;;;;;;0.00;0.00;;;17.90;99.90;;;;;;5138018;27;20047;-67
2023/07/06 08:15:48;;;;;;;0.00;0.00;;;17.90;99.90;;;;;;5144753;27;20037;-67
2023/07/06 08:18:15;;;;;;;0.00;0.00;;;17.90;99.90;;;;;;5125177;27;20034;-68
2023/07/06 08:20:43;;;;;;;0.10;0.10;;;18.00;99.90;;;;;;5145005;27;20047;-68
2023/07/06 08:23:11;;;;;;;0.00;0.00;;;18.10;99.90;;;;;;5132561;27;20122;-67
2023/07/06 08:25:38;;;;;;;0.00;0.00;;;18.20;99.90;;;;;;5144735;27;20469;-67
2023/07/06 08:28:05;;;;;;;0.17;0.17;;;18.20;99.90;;;;;;5144080;27;20049;-67
2023/07/06 08:30:36;;;;;;;0.00;0.00;;;18.20;99.90;;;;;;5134275;27;20413;-67
2023/07/06 08:33:02;;;;;;;0.13;0.13;;;18.30;99.90;;;;;;5141588;27;20502;-67
2023/07/06 08:35:29;;;;;;;0.00;0.00;;;18.30;99.90;;;;;;5122112;27;20050;-67
2023/07/06 08:37:55;;;;;;;0.10;0.10;;;18.40;99.90;;;;;;5122621;27;20050;-67
2023/07/06 08:40:28;;;;;;;0.00;0.00;;;18.50;99.90;;;;;;5126848;27;20054;-67
2023/07/06 08:42:56;;;;;;;0.08;0.08;;;18.60;99.90;;;;;;5126400;27;20043;-67
2023/07/06 08:45:28;;;;;;;0.00;0.00;;;18.60;99.90;;;;;;5138826;27;20122;-67
2023/07/06 08:47:56;;;;;;;0.10;0.10;;;18.70;99.90;;;;;;5129269;27;20042;-67
2023/07/06 08:50:29;;;;;;;0.03;0.03;;;18.60;99.90;;;;;;5141067;27;20050;-67
2023/07/06 08:52:56;;;;;;;0.15;0.15;;;18.60;99.90;;;;;;5122411;27;20036;-67
2023/07/06 08:55:22;;;;;;;0.00;0.00;;;18.60;99.90;;;;;;5121044;27;20069;-67
2023/07/06 08:57:49;;;;;;;0.10;0.10;;;18.70;99.90;;;;;;5144096;27;20083;-67
2023/07/06 09:00:21;;;;;;;0.00;0.00;;;18.80;99.90;;;;;;5139242;27;20047;-67
2023/07/06 09:02:49;;;;;;;0.00;0.00;;;18.80;99.90;;;;;;5145891;27;20493;-67
2023/07/06 09:05:16;;;;;;;0.00;0.00;;;18.70;99.90;;;;;;5135615;27;20111;-67
2023/07/06 09:07:44;;;;;;;0.10;0.10;;;18.80;99.90;;;;;;5147103;27;20039;-67
2023/07/06 09:10:26;;;;;;;0.00;0.00;;;18.80;99.90;;;;;;5121092;27;20053;-68
2023/07/06 09:13:11;;;;;;;0.00;0.00;;;18.90;99.90;;;;;;5142355;27;20042;-67
2023/07/06 09:15:37;;;;;;;0.05;0.05;;;18.90;99.90;;;;;;5140185;27;20474;-67
2023/07/06 09:18:03;;;;;;;0.00;0.00;;;18.90;99.90;;;;;;5151035;27;20026;-67
2023/07/06 09:20:31;;;;;;;0.00;0.00;;;18.80;99.90;;;;;;5143897;27;20111;-68
2023/07/06 09:22:58;;;;;;;0.28;0.28;;;18.80;99.90;;;;;;5140179;27;20047;-67
2023/07/06 09:25:42;;;;;;;0.30;0.30;;;18.90;99.90;;;;;;5133643;27;20042;-67
2023/07/06 09:28:33;;;;;;;0.10;0.10;;;19.00;99.90;;;;;;5131879;27;20071;-68
2023/07/06 09:31:27;;;;;;;0.00;0.00;;;19.10;99.90;;;;;;5145320;27;20130;-67
2023/07/06 09:33:53;;;;;;;0.50;0.50;;;19.20;99.90;;;;;;5141642;27;20510;-68
2023/07/06 09:36:25;;;;;;;0.00;0.00;;;19.30;99.90;;;;;;5148468;27;20135;-67
2023/07/06 09:38:52;;;;;;;0.10;0.10;;;19.40;99.90;;;;;;5145223;27;20051;-67
2023/07/06 09:41:20;;;;;;;0.10;0.10;;;19.40;99.90;;;;;;5156331;27;20401;-67
2023/07/06 09:43:46;;;;;;;0.10;0.10;;;19.50;99.90;;;;;;5148141;27;20554;-67
2023/07/06 09:46:12;;;;;;;0.00;0.00;;;19.50;99.90;;;;;;5144094;27;20078;-66
2023/07/06 09:48:39;;;;;;;0.35;0.35;;;19.80;99.90;;;;;;5124655;27;20116;-67
2023/07/06 09:51:08;;;;;;;0.00;0.00;;;20.10;99.90;;;;;;5145320;27;20113;-67
2023/07/06 09:53:52;;;;;;;0.00;0.00;;;20.50;99.90;;;;;;5146932;27;20053;-67
2023/07/06 09:56:17;;;;;;;0.05;0.05;;;20.70;99.90;;;;;;5154521;27;20047;-67
2023/07/06 09:58:46;;;;;;;0.00;0.00;;;21.00;99.90;;;;;;5147913;27;20118;-67
2023/07/06 10:01:20;;;;;;;0.00;0.00;;;21.30;99.90;;;;;;5147758;27;20043;-67
2023/07/06 10:04:05;;;;;;;0.00;0.00;;;21.70;99.90;;;;;;5146421;27;20038;-67
2023/07/06 10:07:07;;;;;;;0.00;0.00;;;21.90;99.90;;;;;;5142788;27;20125;-67
2023/07/06 10:09:39;;;;;;;0.00;0.00;;;21.60;99.90;;;;;;5147763;27;20042;-67
2023/07/06 10:12:17;;;;;;;0.00;0.00;;;20.90;99.90;;;;;;5147496;27;20030;-67
2023/07/06 10:14:49;;;;;;;0.00;0.00;;;20.40;99.90;;;;;;5126065;27;20038;-67
2023/07/06 10:17:35;;;;;;;0.00;0.00;;;20.00;99.90;;;;;;5146626;27;20073;-67
2023/07/06 10:20:35;;;;;;;0.55;0.22;;;19.90;99.90;;;;;;5144712;27;20046;-67
2023/07/06 10:23:06;;;;;;;2.85;1.02;;;20.30;99.90;;;;;;5124719;27;20039;-67
2023/07/06 10:25:43;;;;;;;0.28;0.28;;;20.40;99.90;;;;;;5153079;27;20043;-67
2023/07/06 10:28:19;;;;;;;0.00;0.00;;;20.70;99.90;;;;;;5143579;27;20059;-67
2023/07/06 10:30:49;;;;;;;0.45;0.45;;;21.10;99.90;;;;;;5144520;27;20088;-68
2023/07/06 10:33:43;;;;;;;0.00;0.00;;;21.50;99.90;;;;;;5146651;27;20061;-67
2023/07/06 10:36:12;;;;;;;0.20;0.20;;;21.70;99.90;;;;;;5141907;27;20386;-67
2023/07/06 10:38:38;;;;;;;0.17;0.17;;;21.80;99.90;;;;;;5129549;27;20039;-67
2023/07/06 10:41:10;;;;;;;0.00;0.00;;;21.60;99.90;;;;;;5151029;27;20078;-66
2023/07/06 10:43:40;;;;;;;0.00;0.00;;;21.50;99.90;;;;;;5124430;27;20118;-66
2023/07/06 10:46:52;;;;;;;0.00;0.00;;;21.10;99.90;;;;;;5143847;27;20479;-67
2023/07/06 10:49:20;;;;;;;0.00;0.00;;;20.70;99.90;;;;;;5095831;27;20090;-67
2023/07/06 10:51:52;;;;;;;0.00;0.00;;;20.60;99.90;;;;;;5125359;27;20447;-67
2023/07/06 10:54:23;;;;;;;0.00;0.00;;;20.80;99.90;;;;;;5142408;27;20050;-67
2023/07/06 10:57:10;;;;;;;0.00;0.00;;;20.90;99.90;;;;;;5141067;27;20304;-67
2023/07/06 10:59:39;;;;;;;0.00;0.00;;;20.60;99.90;;;;;;5149606;27;20047;-66
2023/07/06 11:02:23;;;;;;;0.13;0.10;;;20.80;99.90;;;;;;5133408;27;20573;-67
2023/07/06 11:05:25;;;;;;;0.30;0.30;;;20.80;99.90;;;;;;5141468;27;20497;-67
2023/07/06 11:07:53;;;;;;;0.65;0.65;;;20.70;99.90;;;;;;5140438;27;20046;-68
2023/07/06 11:10:42;;;;;;;1.25;0.65;;;20.40;99.90;;;;;;5146724;27;20398;-68
2023/07/06 11:13:08;;;;;;;0.00;0.00;;;20.60;99.90;;;;;;5142530;27;20054;-67
2023/07/06 11:15:48;;;;;;;0.00;0.00;;;20.60;99.90;;;;;;5141956;27;20050;-68
2023/07/06 11:18:27;;;;;;;0.10;0.10;;;20.40;99.90;;;;;;5141458;27;20043;-68
2023/07/06 11:21:02;;;;;;;0.15;0.15;;;20.60;99.90;;;;;;5138774;27;20119;-68
2023/07/06 11:23:48;;;;;;;0.00;0.00;;;20.40;99.90;;;;;;5143163;27;20466;-68
2023/07/06 11:26:26;;;;;;;0.00;0.00;;;20.70;99.90;;;;;;5137399;27;20054;-68
2023/07/06 11:28:53;;;;;;;0.00;0.00;;;21.20;99.90;;;;;;5143842;27;20546;-67
2023/07/06 11:31:49;;;;;;;0.00;0.00;;;21.70;99.90;;;;;;5143148;27;20047;-67
2023/07/06 11:34:42;;;;;;;0.80;0.65;;;21.90;99.90;;;;;;5145149;27;20065;-67
2023/07/06 11:37:29;;;;;;;0.10;0.10;;;21.90;99.90;;;;;;5124544;27;20674;-68
2023/07/06 11:40:14;;;;;;;0.20;0.20;;;21.70;99.90;;;;;;5144001;27;20718;-68
2023/07/06 11:43:17;;;;;;;0.00;0.00;;;21.60;99.90;;;;;;5141090;27;20047;-67
2023/07/06 11:46:10;;;;;;;1.67;1.57;;;21.90;99.90;;;;;;5146184;27;20138;-68
2023/07/06 11:48:52;;;;;;;0.00;0.00;;;21.80;99.90;;;;;;5139805;27;20126;-68
2023/07/06 11:51:22;;;;;;;0.30;0.10;;;22.00;99.90;;;;;;5140444;27;20509;-68
2023/07/06 11:56:50;;;;;;;0.17;0.05;;;22.60;99.90;;;;;;5142543;27;20119;-68
2023/07/06 11:59:37;;;;;;;0.00;0.00;;;23.10;99.90;;;;;;5133904;27;20090;-68
2023/07/06 12:02:27;;;;;;;0.00;0.00;;;23.00;99.90;;;;;;5141191;27;20043;-68
2023/07/06 12:04:52;;;;;;;0.15;0.15;;;23.30;99.90;;;;;;5144472;27;20042;-68
2023/07/06 12:07:25;;;;;;;0.00;0.00;;;23.50;99.90;;;;;;5141480;27;20039;-68
2023/07/06 12:09:51;;;;;;;0.00;0.00;;;23.60;99.90;;;;;;5149533;27;20057;-68
2023/07/06 12:12:20;;;;;;;0.00;0.00;;;23.60;99.90;;;;;;5138147;27;20039;-68
2023/07/06 12:14:46;;;;;;;1.48;0.55;;;23.10;99.90;;;;;;5144791;27;20034;-68
2023/07/06 12:17:12;;;;;;;0.10;0.10;;;23.50;99.90;;;;;;5144404;27;20046;-68
2023/07/06 12:19:41;;;;;;;0.00;0.00;;;23.70;99.90;;;;;;5143289;27;20047;-68
2023/07/06 12:22:18;;;;;;;0.00;0.00;;;23.90;99.90;;;;;;5123156;27;20394;-68
2023/07/06 12:24:44;;;;;;;0.15;0.15;;;23.80;99.90;;;;;;5143989;27;20611;-68
2023/07/06 12:27:16;;;;;;;0.00;0.00;;;23.80;99.90;;;;;;5138176;27;20034;-67
2023/07/06 12:29:45;;;;;;;0.00;0.00;;;23.80;99.90;;;;;;5148899;27;20084;-68
2023/07/06 12:32:20;;;;;;;0.45;0.45;;;23.50;99.90;;;;;;5139105;27;20104;-68
2023/07/06 12:34:49;;;;;;;0.00;0.00;;;23.20;99.90;;;;;;5143037;27;20050;-68
2023/07/06 12:37:18;;;;;;;1.05;0.82;;;23.80;99.90;;;;;;5134761;27;20035;-68
2023/07/06 12:39:46;;;;;;;0.00;0.00;;;23.10;99.90;;;;;;5147794;27;20043;-68
2023/07/06 12:42:15;;;;;;;0.20;0.20;;;23.10;99.90;;;;;;5140324;27;20050;-68
2023/07/06 12:44:43;;;;;;;2.33;0.77;;;23.70;99.90;;;;;;5141657;27;20118;-68
2023/07/06 12:47:40;;;;;;;0.00;0.00;;;23.80;99.90;;;;;;5149508;27;20390;-68
2023/07/06 12:50:16;;;;;;;0.43;0.43;;;24.10;99.90;;;;;;5119109;27;20051;-67
2023/07/06 12:52:42;;;;;;;0.00;0.00;;;24.30;99.90;;;;;;5141714;27;20062;-68
2023/07/06 12:55:17;;;;;;;0.00;0.00;;;24.50;99.90;;;;;;5142107;27;20035;-68
2023/07/06 12:57:43;;;;;;;0.00;0.00;;;24.20;99.90;;;;;;5141920;27;20137;-68
2023/07/06 13:00:24;;;;;;;0.00;0.00;;;24.50;99.90;;;;;;5140751;27;20035;-67
2023/07/06 13:02:56;;;;;;;0.00;0.00;;;24.70;99.90;;;;;;5148846;27;20046;-67
2023/07/06 13:05:24;;;;;;;0.00;0.00;;;24.90;99.90;;;;;;5141026;27;20034;-68
2023/07/06 13:07:52;;;;;;;1.60;0.52;;;25.00;99.90;;;;;;5138114;27;20042;-68